Terminal Aerodrome Forecast
Issued by NWS Indianapolis, IN

Home | Current Version | Previous Version | Text Only | Print | Product List | Glossary On
Versions: 1 2 3 4 5 6 7 8 9 10 11 12 13 14 15 16 17 18 19 20 21 22 23 24 25 26 27
000
FTUS43 KIND 281700
TAFIND
TAF
KIND 281720Z 2818/0124 11008KT P6SM OVC080
     FM282100 10008KT P6SM SCT025 OVC050
     FM010000 10006KT 2SM -SN BR OVC019
     FM010400 VRB04KT 1SM -SN BR OVC007
      TEMPO 0106/0110 3/4SM -SN VV004=

USA.gov is the U.S. government's official web portal to all federal, state and local government web resources and services.